Time;durP1;ratioP1;P1;durP2;ratioP2;P2;SDS_P1;SDS_P2;PMS_P1;PMS_P2;Temp;Humidity;BMP_temperature;BMP_pressure;BME280_temperature;BME280_humidity;BME280_pressure;Samples;Min_cycle;Max_cycle;Signal;HPM_P1;HPM_P2
2023/06/07 00:02:26;;;;;;;0.80;0.80;;;18.10;76.30;;;;;;5088232;28;20269;-75
2023/06/07 00:04:51;;;;;;;0.88;0.88;;;18.10;76.20;;;;;;5072463;28;20181;-75
2023/06/07 00:07:18;;;;;;;0.80;0.80;;;18.00;76.40;;;;;;5074273;28;20269;-75
2023/06/07 00:09:43;;;;;;;1.25;0.80;;;18.00;76.50;;;;;;5078135;28;20178;-76
2023/06/07 00:12:10;;;;;;;1.80;0.80;;;18.00;76.60;;;;;;5091143;28;20217;-75
2023/06/07 00:14:36;;;;;;;0.90;0.90;;;17.90;76.60;;;;;;5094176;28;20178;-75
2023/06/07 00:17:02;;;;;;;1.27;0.80;;;17.90;76.70;;;;;;5090559;28;20541;-75
2023/06/07 00:19:29;;;;;;;1.27;1.17;;;17.90;76.60;;;;;;5070824;28;20186;-76
2023/06/07 00:21:57;;;;;;;0.80;0.80;;;17.90;76.40;;;;;;5089490;28;20201;-74
2023/06/07 00:24:22;;;;;;;0.73;0.73;;;17.90;76.60;;;;;;5095735;28;20186;-76
2023/06/07 00:26:48;;;;;;;4.45;0.90;;;17.80;76.90;;;;;;5088323;28;20175;-77
2023/06/07 00:29:15;;;;;;;0.55;0.55;;;17.80;76.70;;;;;;5089258;28;20186;-75
2023/06/07 00:31:41;;;;;;;1.70;0.80;;;17.70;77.30;;;;;;5076948;28;20737;-75
2023/06/07 00:34:06;;;;;;;2.05;0.63;;;17.60;78.00;;;;;;5071125;28;20182;-77
2023/06/07 00:36:35;;;;;;;0.82;0.77;;;17.60;77.60;;;;;;5093656;28;20228;-76
2023/06/07 00:39:04;;;;;;;0.82;0.82;;;17.50;77.70;;;;;;5091151;28;20186;-76
2023/06/07 00:41:30;;;;;;;2.15;1.13;;;17.40;77.70;;;;;;5105967;27;20200;-76
2023/06/07 00:43:56;;;;;;;1.23;0.68;;;17.50;77.30;;;;;;5099998;28;20845;-76
2023/06/07 00:46:26;;;;;;;0.80;0.80;;;17.40;77.20;;;;;;5077293;28;20193;-75
2023/06/07 00:48:52;;;;;;;3.22;0.80;;;17.40;77.20;;;;;;5092204;28;20664;-75
2023/06/07 00:51:21;;;;;;;0.63;0.63;;;17.30;76.70;;;;;;5096500;28;20297;-75
2023/06/07 00:53:49;;;;;;;0.60;0.57;;;17.30;76.80;;;;;;5093602;28;20178;-75
2023/06/07 00:56:15;;;;;;;3.15;0.93;;;17.30;76.60;;;;;;5095158;28;20185;-76
2023/06/07 00:58:45;;;;;;;0.80;0.80;;;17.30;76.60;;;;;;5096547;28;20182;-74
2023/06/07 01:01:12;;;;;;;0.70;0.70;;;17.30;76.60;;;;;;5097430;28;20214;-74
2023/06/07 01:03:38;;;;;;;0.80;0.80;;;17.30;76.40;;;;;;5097019;28;20178;-74
2023/06/07 01:06:05;;;;;;;0.82;0.80;;;17.30;76.30;;;;;;5093047;28;20174;-76
2023/06/07 01:08:32;;;;;;;0.65;0.65;;;17.30;76.20;;;;;;5074960;28;20624;-75
2023/06/07 01:10:59;;;;;;;0.77;0.77;;;17.30;76.10;;;;;;5092254;28;20618;-76
2023/06/07 01:13:25;;;;;;;0.60;0.60;;;17.30;76.10;;;;;;5095262;28;20700;-76
2023/06/07 01:15:51;;;;;;;0.70;0.70;;;17.30;76.20;;;;;;5103234;28;20194;-76
2023/06/07 01:18:18;;;;;;;0.95;0.80;;;17.20;76.40;;;;;;5094617;28;20202;-76
2023/06/07 01:20:49;;;;;;;0.70;0.70;;;17.20;76.20;;;;;;5094231;28;20699;-76
2023/06/07 01:23:27;;;;;;;0.90;0.90;;;17.20;76.30;;;;;;5089439;28;20182;-77
2023/06/07 01:25:53;;;;;;;0.70;0.70;;;17.20;76.00;;;;;;5073306;28;20185;-77
2023/06/07 01:28:19;;;;;;;0.70;0.70;;;17.20;76.10;;;;;;5095611;28;20186;-75
2023/06/07 01:30:46;;;;;;;0.90;0.90;;;17.20;76.00;;;;;;5076577;28;20218;-76
2023/06/07 01:33:13;;;;;;;1.85;0.82;;;17.20;76.10;;;;;;5100713;28;20627;-75
2023/06/07 01:35:39;;;;;;;0.60;0.60;;;17.20;76.30;;;;;;5092329;28;20257;-76
2023/06/07 01:38:06;;;;;;;0.73;0.73;;;17.20;76.00;;;;;;5102086;28;20231;-75
2023/06/07 01:40:34;;;;;;;0.80;0.80;;;17.20;76.00;;;;;;5088746;28;20274;-76
2023/06/07 01:43:00;;;;;;;1.02;1.02;;;17.30;75.90;;;;;;5097584;28;20245;-76
2023/06/07 01:45:26;;;;;;;0.80;0.80;;;17.30;76.00;;;;;;5093300;28;20182;-75
2023/06/07 01:47:51;;;;;;;0.90;0.90;;;17.30;75.90;;;;;;5095980;28;20175;-76
2023/06/07 01:50:21;;;;;;;0.73;0.73;;;17.20;75.90;;;;;;5073369;28;20832;-76
2023/06/07 01:52:47;;;;;;;1.17;1.08;;;17.20;76.50;;;;;;5076339;28;20666;-76
2023/06/07 01:55:13;;;;;;;0.82;0.82;;;17.20;76.00;;;;;;5097285;28;20201;-76
2023/06/07 01:58:20;;;;;;;0.85;0.85;;;17.20;75.70;;;;;;5075125;28;20213;-76
2023/06/07 02:01:14;;;;;;;0.95;0.95;;;17.10;75.70;;;;;;5062391;28;20760;-75
2023/06/07 02:03:45;;;;;;;1.00;0.90;;;17.10;75.70;;;;;;5075569;28;20189;-75
2023/06/07 02:06:16;;;;;;;0.80;0.80;;;17.10;75.80;;;;;;5092460;28;20186;-76
2023/06/07 02:08:54;;;;;;;1.25;1.02;;;17.00;76.10;;;;;;5079286;28;20185;-76
2023/06/07 02:11:22;;;;;;;2.38;1.00;;;17.00;75.70;;;;;;5074613;28;20221;-76
2023/06/07 02:13:51;;;;;;;2.17;1.00;;;17.00;75.90;;;;;;5090333;28;20257;-76
2023/06/07 02:16:32;;;;;;;0.90;0.90;;;17.00;75.80;;;;;;5075402;28;20239;-76
2023/06/07 02:18:58;;;;;;;0.90;0.90;;;17.00;75.90;;;;;;5075279;28;20692;-76
2023/06/07 02:21:24;;;;;;;1.05;1.02;;;17.00;75.60;;;;;;5074049;28;20277;-75
2023/06/07 02:23:51;;;;;;;0.82;0.82;;;17.00;75.60;;;;;;5094029;28;20253;-75
2023/06/07 02:26:16;;;;;;;2.22;1.30;;;16.90;75.60;;;;;;5072540;28;20190;-76
2023/06/07 02:28:42;;;;;;;2.30;0.93;;;16.90;75.80;;;;;;5097379;28;20189;-76
2023/06/07 02:31:07;;;;;;;1.85;1.00;;;16.80;75.80;;;;;;5070813;28;20214;-75
2023/06/07 02:33:33;;;;;;;0.80;0.80;;;16.80;75.70;;;;;;5091296;28;20186;-76
2023/06/07 02:35:59;;;;;;;0.68;0.68;;;16.80;75.60;;;;;;5097384;28;20197;-76
2023/06/07 02:38:25;;;;;;;0.70;0.70;;;16.70;75.90;;;;;;5070969;28;20209;-76
2023/06/07 02:40:53;;;;;;;1.50;1.17;;;16.70;76.20;;;;;;5089800;28;20216;-76
2023/06/07 02:43:18;;;;;;;0.88;0.88;;;16.70;76.20;;;;;;5072869;28;20182;-76
2023/06/07 02:45:44;;;;;;;0.77;0.77;;;16.60;76.10;;;;;;5096307;28;20206;-76
2023/06/07 02:48:10;;;;;;;1.10;1.10;;;16.60;76.30;;;;;;5093809;28;20616;-76
2023/06/07 02:50:35;;;;;;;1.10;1.10;;;16.60;76.30;;;;;;5089618;28;20740;-77
2023/06/07 02:53:02;;;;;;;1.05;0.85;;;16.60;76.50;;;;;;5074548;28;20957;-77
2023/06/07 02:55:27;;;;;;;1.15;1.05;;;16.60;76.40;;;;;;5075522;28;20178;-77
2023/06/07 02:57:53;;;;;;;4.97;1.27;;;16.60;76.40;;;;;;5088676;28;20185;-76
2023/06/07 03:00:19;;;;;;;0.77;0.77;;;16.60;76.40;;;;;;5075865;28;20178;-77
2023/06/07 03:02:45;;;;;;;0.88;0.88;;;16.60;76.40;;;;;;5099748;28;20182;-76
2023/06/07 03:05:12;;;;;;;0.70;0.70;;;16.50;76.40;;;;;;5073763;28;20188;-76
2023/06/07 03:07:40;;;;;;;1.02;0.90;;;16.50;76.60;;;;;;5076513;28;20178;-76
2023/06/07 03:10:06;;;;;;;2.53;1.00;;;16.50;76.80;;;;;;5077284;28;20175;-76
2023/06/07 03:12:32;;;;;;;1.23;0.70;;;16.50;76.90;;;;;;5091888;28;20222;-76
2023/06/07 03:14:57;;;;;;;1.58;1.05;;;16.50;77.10;;;;;;5095650;28;20178;-76
2023/06/07 03:17:23;;;;;;;0.70;0.70;;;16.50;76.90;;;;;;5092390;28;20186;-76
2023/06/07 03:19:49;;;;;;;0.77;0.77;;;16.50;76.80;;;;;;5092686;28;20188;-76
2023/06/07 03:22:15;;;;;;;0.63;0.63;;;16.50;76.80;;;;;;5091580;28;20265;-76
2023/06/07 03:24:41;;;;;;;0.80;0.80;;;16.50;77.10;;;;;;5087537;28;20210;-76
2023/06/07 03:27:10;;;;;;;0.85;0.70;;;16.50;77.00;;;;;;5074888;28;20182;-76
2023/06/07 03:29:36;;;;;;;0.85;0.85;;;16.50;77.10;;;;;;5092138;28;20187;-77
2023/06/07 03:32:02;;;;;;;0.80;0.80;;;16.50;77.20;;;;;;5089702;28;20221;-77
2023/06/07 03:37:12;;;;;;;0.65;0.65;;;16.50;77.30;;;;;;5088565;28;20227;-77
2023/06/07 03:39:38;;;;;;;0.77;0.77;;;16.50;77.20;;;;;;5072239;28;20654;-77
2023/06/07 03:42:05;;;;;;;0.90;0.90;;;16.50;77.20;;;;;;5074647;28;20244;-77
2023/06/07 03:44:30;;;;;;;1.02;1.02;;;16.50;77.40;;;;;;5095509;28;20715;-77
2023/06/07 03:46:56;;;;;;;0.75;0.75;;;16.50;77.20;;;;;;5075246;28;20269;-77
2023/06/07 03:49:22;;;;;;;1.13;1.02;;;16.60;77.20;;;;;;5088290;28;20257;-76
2023/06/07 03:51:48;;;;;;;0.80;0.80;;;16.60;77.20;;;;;;5075667;28;20210;-76
2023/06/07 03:54:14;;;;;;;0.68;0.68;;;16.60;77.30;;;;;;5074677;28;20569;-76
2023/06/07 03:56:40;;;;;;;0.85;0.85;;;16.60;77.20;;;;;;5090488;28;20189;-76
2023/06/07 03:59:06;;;;;;;0.85;0.85;;;16.60;77.30;;;;;;5089082;28;20235;-76
2023/06/07 04:01:32;;;;;;;0.75;0.63;;;16.60;77.40;;;;;;5070645;28;20182;-76
2023/06/07 04:03:58;;;;;;;1.50;0.95;;;16.60;77.40;;;;;;5092840;28;20190;-75
2023/06/07 04:06:27;;;;;;;0.98;0.90;;;16.60;77.30;;;;;;5096846;28;20219;-75
2023/06/07 04:08:53;;;;;;;2.67;0.80;;;16.60;77.60;;;;;;5079076;28;20173;-75
2023/06/07 04:11:19;;;;;;;2.40;0.90;;;16.60;77.50;;;;;;5094340;28;20206;-77
2023/06/07 04:13:45;;;;;;;0.85;0.73;;;16.60;77.60;;;;;;5095016;28;20643;-76
2023/06/07 04:16:11;;;;;;;1.38;0.82;;;16.70;77.80;;;;;;5073124;28;20265;-76
2023/06/07 04:18:36;;;;;;;1.65;0.82;;;16.70;77.70;;;;;;5072488;28;20187;-77
2023/06/07 04:21:03;;;;;;;1.38;0.75;;;16.70;78.00;;;;;;5094015;28;20232;-75
2023/06/07 04:23:28;;;;;;;0.80;0.80;;;16.70;78.00;;;;;;5099271;28;20242;-75
2023/06/07 04:25:54;;;;;;;2.30;1.02;;;16.80;77.80;;;;;;5095973;28;20645;-77
2023/06/07 04:28:24;;;;;;;1.05;0.85;;;16.80;77.80;;;;;;5071039;28;20186;-76
2023/06/07 04:30:56;;;;;;;0.70;0.70;;;16.90;78.30;;;;;;5091350;28;20190;-76
2023/06/07 04:33:23;;;;;;;0.65;0.65;;;16.90;78.00;;;;;;5090959;28;20178;-75
2023/06/07 04:35:50;;;;;;;1.33;1.33;;;17.00;78.10;;;;;;5107785;27;20265;-76
2023/06/07 04:38:23;;;;;;;0.90;0.90;;;17.10;78.30;;;;;;5095682;28;20234;-76
2023/06/07 04:40:49;;;;;;;0.98;0.60;;;17.20;77.90;;;;;;5095734;28;20839;-76
2023/06/07 04:43:19;;;;;;;1.10;1.08;;;17.30;78.10;;;;;;5077640;28;20183;-76
2023/06/07 04:46:04;;;;;;;1.08;1.08;;;17.30;77.90;;;;;;5078092;28;20194;-76
2023/06/07 04:48:31;;;;;;;1.85;1.02;;;17.40;77.70;;;;;;5094305;28;20193;-76
2023/06/07 04:51:04;;;;;;;3.53;1.35;;;17.50;77.50;;;;;;5071590;28;20297;-76
2023/06/07 04:53:35;;;;;;;1.02;1.02;;;17.50;77.30;;;;;;5073446;28;20246;-76
2023/06/07 04:56:02;;;;;;;4.40;1.25;;;17.60;77.00;;;;;;5083767;28;20178;-76
2023/06/07 04:58:27;;;;;;;1.02;1.02;;;17.60;77.30;;;;;;5097535;28;20182;-76
2023/06/07 05:00:56;;;;;;;3.47;1.27;;;17.60;77.10;;;;;;5096297;28;20187;-76
2023/06/07 05:03:22;;;;;;;2.00;1.13;;;17.70;77.90;;;;;;5077791;28;20190;-76
2023/06/07 05:05:49;;;;;;;3.60;2.13;;;17.70;78.30;;;;;;5077026;28;20182;-76
2023/06/07 05:08:15;;;;;;;8.98;1.88;;;17.80;77.90;;;;;;5079282;28;20182;-76
2023/06/07 05:10:41;;;;;;;3.60;1.27;;;17.90;77.70;;;;;;5091620;28;20260;-76
2023/06/07 05:13:07;;;;;;;3.70;1.15;;;18.10;77.50;;;;;;5076446;28;20182;-78
2023/06/07 05:15:33;;;;;;;3.63;1.30;;;18.10;77.30;;;;;;5093460;28;20182;-75
2023/06/07 05:17:59;;;;;;;0.88;0.88;;;18.20;77.20;;;;;;5076769;28;20676;-77
2023/06/07 05:20:26;;;;;;;3.70;1.08;;;18.30;76.70;;;;;;5096814;28;20200;-77
2023/06/07 05:22:52;;;;;;;1.58;1.05;;;18.40;76.60;;;;;;5077378;28;20186;-75
2023/06/07 05:25:18;;;;;;;1.33;1.20;;;18.50;76.50;;;;;;5080659;28;20232;-75
2023/06/07 05:27:43;;;;;;;1.60;0.90;;;18.60;76.60;;;;;;5088588;28;20732;-74
2023/06/07 05:30:10;;;;;;;4.45;0.95;;;18.60;76.40;;;;;;5092476;28;20577;-75
2023/06/07 05:32:36;;;;;;;3.45;0.95;;;18.70;76.10;;;;;;5099982;28;20867;-76
2023/06/07 05:35:03;;;;;;;0.88;0.88;;;18.80;76.10;;;;;;5091647;28;20699;-76
2023/06/07 05:37:30;;;;;;;1.15;1.15;;;18.90;76.20;;;;;;5092823;28;20239;-75
2023/06/07 05:39:56;;;;;;;1.75;1.48;;;19.00;76.00;;;;;;5076377;28;20460;-75
2023/06/07 05:42:22;;;;;;;1.48;1.48;;;19.00;75.90;;;;;;5095815;28;20190;-78
2023/06/07 05:44:49;;;;;;;1.38;1.27;;;19.10;75.10;;;;;;5090546;28;20189;-79
2023/06/07 05:47:16;;;;;;;1.10;1.05;;;19.20;74.70;;;;;;5079630;28;20175;-78
2023/06/07 05:49:45;;;;;;;1.77;1.00;;;19.30;75.10;;;;;;5076453;28;20643;-78
2023/06/07 05:52:11;;;;;;;0.80;0.80;;;19.40;74.60;;;;;;5073720;28;20221;-77
2023/06/07 05:54:47;;;;;;;1.73;0.90;;;19.40;74.20;;;;;;5075310;28;20170;-77
2023/06/07 05:57:12;;;;;;;1.35;1.35;;;19.50;75.00;;;;;;5091840;28;20205;-77
2023/06/07 05:59:38;;;;;;;1.30;1.23;;;19.50;74.90;;;;;;5073298;28;20675;-77
2023/06/07 06:02:04;;;;;;;1.48;0.98;;;19.60;74.60;;;;;;5074168;28;20175;-77
2023/06/07 06:04:30;;;;;;;0.95;0.95;;;19.70;74.50;;;;;;5079584;28;20174;-77
2023/06/07 06:06:56;;;;;;;1.35;0.90;;;19.80;74.60;;;;;;5079584;28;20248;-77
2023/06/07 06:09:22;;;;;;;1.67;0.90;;;19.90;74.30;;;;;;5093059;28;20171;-77
2023/06/07 06:11:49;;;;;;;1.10;0.98;;;20.00;74.00;;;;;;5073083;28;20285;-77
2023/06/07 06:14:15;;;;;;;1.08;0.80;;;20.10;73.70;;;;;;5073827;28;20174;-77
2023/06/07 06:16:40;;;;;;;0.80;0.80;;;20.20;73.60;;;;;;5091998;28;20170;-76
2023/06/07 06:19:06;;;;;;;1.60;1.50;;;20.30;72.90;;;;;;5091820;28;20178;-77
2023/06/07 06:21:32;;;;;;;3.80;1.30;;;20.40;73.00;;;;;;5092230;28;20170;-77
2023/06/07 06:23:57;;;;;;;1.63;1.00;;;20.50;73.00;;;;;;5090951;28;20166;-77
2023/06/07 06:26:25;;;;;;;2.10;1.00;;;20.60;73.10;;;;;;5091813;28;20170;-77
2023/06/07 06:28:50;;;;;;;1.92;1.08;;;20.70;72.70;;;;;;5073455;28;20185;-77
2023/06/07 06:31:16;;;;;;;1.50;1.00;;;20.70;72.70;;;;;;5090411;28;20604;-76
2023/06/07 06:33:42;;;;;;;1.20;1.08;;;20.80;72.50;;;;;;5089685;28;20175;-79
2023/06/07 06:36:08;;;;;;;6.70;0.88;;;20.90;72.60;;;;;;5089089;28;20177;-76
2023/06/07 06:38:33;;;;;;;1.58;1.00;;;21.00;72.30;;;;;;5089700;28;20796;-78
2023/06/07 06:40:59;;;;;;;0.77;0.77;;;21.10;72.50;;;;;;5071131;28;20216;-76
2023/06/07 06:43:25;;;;;;;1.10;1.08;;;21.20;72.50;;;;;;5070719;28;20174;-76
2023/06/07 06:45:50;;;;;;;0.90;0.90;;;21.20;72.00;;;;;;5088749;28;20655;-75
2023/06/07 06:48:16;;;;;;;3.80;1.00;;;21.30;72.30;;;;;;5089594;28;20257;-76
2023/06/07 06:50:43;;;;;;;1.20;1.10;;;21.40;72.00;;;;;;5089800;28;20223;-76
2023/06/07 06:53:09;;;;;;;2.28;1.00;;;21.50;71.90;;;;;;5091207;28;20174;-76
2023/06/07 06:55:34;;;;;;;1.67;1.50;;;21.60;71.60;;;;;;5073054;28;20174;-76
2023/06/07 06:58:00;;;;;;;3.25;1.83;;;21.70;72.20;;;;;;5072434;28;20179;-78
2023/06/07 07:00:26;;;;;;;1.17;1.00;;;21.70;72.10;;;;;;5091149;28;20179;-78
2023/06/07 07:02:52;;;;;;;1.05;1.00;;;21.80;71.40;;;;;;5072526;28;20735;-77
2023/06/07 07:05:18;;;;;;;1.77;0.95;;;21.90;70.70;;;;;;5071981;28;20221;-77
2023/06/07 07:07:43;;;;;;;4.10;1.05;;;21.90;71.80;;;;;;5090630;28;20205;-76
2023/06/07 07:10:09;;;;;;;1.00;1.00;;;22.00;71.80;;;;;;5090928;28;20200;-77
2023/06/07 07:12:38;;;;;;;1.80;0.90;;;22.00;71.20;;;;;;5091762;28;20209;-77
2023/06/07 07:15:04;;;;;;;0.88;0.80;;;22.10;70.90;;;;;;5090963;28;20182;-77
2023/06/07 07:17:30;;;;;;;0.80;0.80;;;22.20;71.00;;;;;;5090907;28;20624;-76
2023/06/07 07:19:56;;;;;;;0.85;0.85;;;22.20;71.10;;;;;;5072296;28;20202;-77
2023/06/07 07:22:22;;;;;;;0.90;0.90;;;22.20;70.90;;;;;;5090160;28;20209;-77
2023/06/07 07:24:47;;;;;;;1.00;1.00;;;22.20;71.30;;;;;;5090266;28;20233;-77
2023/06/07 07:27:13;;;;;;;0.82;0.82;;;22.20;71.50;;;;;;5071962;28;20256;-76
2023/06/07 07:29:39;;;;;;;3.50;1.50;;;22.20;71.10;;;;;;5089972;28;20220;-76
2023/06/07 07:32:05;;;;;;;1.42;1.33;;;22.30;71.50;;;;;;5071176;28;20259;-75
2023/06/07 07:34:31;;;;;;;0.93;0.93;;;22.40;71.50;;;;;;5072576;28;20173;-77
2023/06/07 07:37:02;;;;;;;1.08;0.98;;;22.50;70.50;;;;;;5089182;28;20174;-77
2023/06/07 07:39:28;;;;;;;1.23;0.88;;;22.60;70.50;;;;;;5090662;28;20170;-77
2023/06/07 07:41:53;;;;;;;1.17;1.10;;;22.70;70.90;;;;;;5089755;28;20728;-78
2023/06/07 07:44:19;;;;;;;1.00;1.00;;;22.80;70.60;;;;;;5092178;28;20202;-76
2023/06/07 07:46:45;;;;;;;1.85;1.02;;;22.90;70.20;;;;;;5073409;28;20189;-76
2023/06/07 07:49:11;;;;;;;7.63;1.60;;;23.00;69.00;;;;;;5089595;28;20174;-76
2023/06/07 07:51:37;;;;;;;0.95;0.95;;;22.90;69.20;;;;;;5071615;28;20631;-77
2023/06/07 07:54:04;;;;;;;0.85;0.85;;;22.90;70.10;;;;;;5071635;28;20831;-76
2023/06/07 07:56:29;;;;;;;1.35;1.25;;;23.00;69.80;;;;;;5071779;28;20178;-76
2023/06/07 07:58:55;;;;;;;0.95;0.95;;;23.00;69.50;;;;;;5090476;28;20178;-76
2023/06/07 08:01:22;;;;;;;1.80;1.02;;;23.10;70.00;;;;;;5089806;28;20174;-78
2023/06/07 08:03:48;;;;;;;2.70;0.90;;;23.20;69.80;;;;;;5072711;28;20173;-76
2023/06/07 08:06:14;;;;;;;1.10;1.10;;;23.30;69.30;;;;;;5090569;28;20216;-77
2023/06/07 08:08:40;;;;;;;1.10;1.10;;;23.40;68.50;;;;;;5072324;28;20643;-77
2023/06/07 08:11:06;;;;;;;2.33;1.42;;;23.60;68.70;;;;;;5090719;28;20210;-77
2023/06/07 08:13:31;;;;;;;1.10;1.10;;;23.70;68.80;;;;;;5089557;28;20182;-76
2023/06/07 08:15:57;;;;;;;1.25;1.25;;;23.80;69.00;;;;;;5073154;28;20171;-76
2023/06/07 08:18:23;;;;;;;1.30;1.20;;;24.00;69.00;;;;;;5072423;28;20178;-76
2023/06/07 08:20:49;;;;;;;1.45;1.15;;;24.10;68.90;;;;;;5090350;28;20706;-76
2023/06/07 08:23:14;;;;;;;2.45;1.42;;;24.20;68.70;;;;;;5089735;28;20170;-76
2023/06/07 08:25:40;;;;;;;1.05;1.05;;;24.30;68.00;;;;;;5076255;28;20175;-77
2023/06/07 08:28:06;;;;;;;1.30;1.30;;;24.50;67.40;;;;;;5090039;28;20235;-76
2023/06/07 08:30:32;;;;;;;0.88;0.88;;;24.60;67.50;;;;;;5090639;28;20641;-76
2023/06/07 08:32:57;;;;;;;1.30;1.30;;;24.70;67.00;;;;;;5089169;28;20636;-76
2023/06/07 08:35:23;;;;;;;1.27;1.08;;;24.90;66.40;;;;;;5095656;28;20717;-76
2023/06/07 08:37:49;;;;;;;1.38;1.25;;;25.00;66.10;;;;;;5089770;28;20214;-77
2023/06/07 08:40:18;;;;;;;0.95;0.93;;;25.10;65.70;;;;;;5089867;28;20232;-76
2023/06/07 08:42:44;;;;;;;1.10;1.10;;;25.20;66.10;;;;;;5089669;28;20166;-76
2023/06/07 08:45:10;;;;;;;1.50;1.02;;;25.30;66.10;;;;;;5077390;28;20190;-76
2023/06/07 08:47:39;;;;;;;1.98;1.35;;;25.40;65.80;;;;;;5089203;28;20564;-76
2023/06/07 08:50:09;;;;;;;1.23;1.23;;;25.50;65.50;;;;;;5089309;28;20265;-76
2023/06/07 08:52:39;;;;;;;1.17;1.13;;;25.50;64.70;;;;;;5091533;28;20661;-76
2023/06/07 08:55:10;;;;;;;1.40;1.40;;;25.40;65.80;;;;;;5103444;28;20212;-76
2023/06/07 08:57:36;;;;;;;1.30;1.20;;;25.30;63.90;;;;;;5092837;28;20188;-77
2023/06/07 09:00:06;;;;;;;1.50;1.23;;;25.20;64.90;;;;;;5092629;28;20186;-77
2023/06/07 09:02:32;;;;;;;1.20;1.20;;;25.20;66.10;;;;;;5092763;28;20174;-77
2023/06/07 09:05:02;;;;;;;1.15;1.15;;;25.40;67.10;;;;;;5100172;28;20651;-76
2023/06/07 09:07:28;;;;;;;3.80;1.50;;;25.40;67.50;;;;;;5075762;28;20201;-77
2023/06/07 09:09:54;;;;;;;1.50;1.40;;;25.50;66.60;;;;;;5075879;28;20178;-77
2023/06/07 09:12:19;;;;;;;1.50;1.40;;;25.60;65.60;;;;;;5075925;28;20210;-77
2023/06/07 09:14:46;;;;;;;1.80;1.70;;;25.70;63.80;;;;;;5074192;28;20186;-76
2023/06/07 09:17:12;;;;;;;1.90;1.45;;;25.80;65.10;;;;;;5092353;28;20264;-76
2023/06/07 09:19:42;;;;;;;1.40;1.40;;;25.90;64.60;;;;;;5093521;28;20240;-78
2023/06/07 09:22:14;;;;;;;1.35;1.35;;;25.90;64.70;;;;;;5093419;28;20184;-77
2023/06/07 09:24:40;;;;;;;1.40;1.30;;;26.00;64.50;;;;;;5093843;28;20196;-76
2023/06/07 09:27:08;;;;;;;1.33;1.13;;;26.20;65.20;;;;;;5073948;28;20925;-77
2023/06/07 09:29:42;;;;;;;1.75;1.30;;;26.40;64.40;;;;;;5092006;28;20265;-75
2023/06/07 09:32:25;;;;;;;1.30;1.30;;;26.60;64.00;;;;;;5070515;28;20213;-77
2023/06/07 09:34:53;;;;;;;1.25;1.25;;;26.60;63.80;;;;;;5088696;28;20171;-76
2023/06/07 09:37:21;;;;;;;1.45;1.27;;;26.70;63.70;;;;;;5072974;28;20209;-77
2023/06/07 09:39:52;;;;;;;2.25;1.33;;;26.80;63.90;;;;;;5092111;28;20171;-77
2023/06/07 09:42:18;;;;;;;1.40;1.10;;;26.90;63.90;;;;;;5091790;28;20197;-76
2023/06/07 09:44:44;;;;;;;1.88;1.15;;;27.10;62.60;;;;;;5074810;28;20173;-77
2023/06/07 09:47:23;;;;;;;1.73;1.58;;;27.20;63.70;;;;;;5077726;28;20552;-77
2023/06/07 09:49:54;;;;;;;1.60;1.50;;;27.20;61.90;;;;;;5091943;28;20182;-76
2023/06/07 09:52:20;;;;;;;2.90;1.27;;;27.30;61.90;;;;;;5090542;28;20936;-77
2023/06/07 09:54:46;;;;;;;3.00;1.30;;;27.30;62.20;;;;;;5093495;28;20183;-77
2023/06/07 09:57:27;;;;;;;1.65;1.60;;;27.20;62.90;;;;;;5070148;28;20178;-77
2023/06/07 10:02:36;;;;;;;1.98;1.27;;;27.20;62.30;;;;;;5092213;28;20194;-77
2023/06/07 10:05:01;;;;;;;1.30;1.30;;;27.20;63.20;;;;;;5075204;28;20178;-77
2023/06/07 10:07:33;;;;;;;1.30;1.30;;;27.20;63.10;;;;;;5094076;28;20177;-77
2023/06/07 10:10:00;;;;;;;1.10;1.10;;;27.20;62.40;;;;;;5091686;28;20170;-77
2023/06/07 10:12:29;;;;;;;2.15;1.27;;;27.20;62.50;;;;;;5095416;28;20209;-77
2023/06/07 10:14:56;;;;;;;1.23;1.23;;;27.30;62.60;;;;;;5073182;28;20593;-77
2023/06/07 10:17:28;;;;;;;2.53;1.85;;;27.40;61.90;;;;;;5072797;28;20174;-77
2023/06/07 10:19:59;;;;;;;1.50;1.50;;;27.30;63.30;;;;;;5076265;28;20542;-76
2023/06/07 10:22:31;;;;;;;1.15;1.15;;;27.30;63.90;;;;;;5067735;28;20179;-76
2023/06/07 10:25:14;;;;;;;1.08;1.08;;;27.30;62.80;;;;;;5085880;28;20193;-76
2023/06/07 10:28:21;;;;;;;0.98;0.98;;;27.20;63.10;;;;;;5090832;28;20609;-76
2023/06/07 10:30:53;;;;;;;1.55;1.45;;;27.30;61.90;;;;;;5091347;28;20194;-76
2023/06/07 10:33:20;;;;;;;1.40;1.40;;;27.20;63.50;;;;;;5091629;28;20178;-76
2023/06/07 10:35:46;;;;;;;3.30;1.45;;;27.20;62.90;;;;;;5073750;28;20265;-77
2023/06/07 10:38:14;;;;;;;1.40;1.40;;;27.20;62.80;;;;;;5091942;28;20222;-77
2023/06/07 10:40:40;;;;;;;1.92;1.77;;;27.20;62.60;;;;;;5090934;28;20186;-77
2023/06/07 10:43:05;;;;;;;1.67;1.65;;;27.30;62.30;;;;;;5090871;28;20181;-77
2023/06/07 10:45:31;;;;;;;1.77;1.77;;;27.40;62.30;;;;;;5079606;28;20580;-75
2023/06/07 10:48:17;;;;;;;2.15;1.60;;;27.40;62.20;;;;;;5096130;28;20654;-75
2023/06/07 10:50:47;;;;;;;1.42;1.42;;;27.50;62.20;;;;;;5091792;28;20173;-76
2023/06/07 10:53:12;;;;;;;1.48;1.38;;;27.60;62.50;;;;;;5072046;28;20188;-75
2023/06/07 10:55:38;;;;;;;2.15;1.23;;;27.60;61.20;;;;;;5091406;28;20250;-75
2023/06/07 10:58:27;;;;;;;1.80;1.50;;;27.70;61.20;;;;;;5098812;28;20272;-76
2023/06/07 11:00:55;;;;;;;4.88;4.43;;;27.90;60.70;;;;;;5095979;28;20192;-76
2023/06/07 11:03:23;;;;;;;1.48;1.48;;;28.00;61.10;;;;;;5090864;28;20189;-75
2023/06/07 11:05:55;;;;;;;1.75;1.48;;;28.20;61.90;;;;;;5094034;28;20690;-75
2023/06/07 11:08:32;;;;;;;1.35;1.35;;;28.30;59.90;;;;;;5089568;28;20200;-76
2023/06/07 11:11:02;;;;;;;1.58;1.48;;;28.30;60.20;;;;;;5072356;28;20255;-75
2023/06/07 11:13:53;;;;;;;1.10;1.10;;;28.30;61.10;;;;;;5071516;28;20661;-75
2023/06/07 11:16:25;;;;;;;1.98;1.20;;;28.50;59.90;;;;;;5073150;28;20186;-75
2023/06/07 11:19:09;;;;;;;1.25;1.25;;;28.50;59.80;;;;;;5072785;28;20182;-75
2023/06/07 11:21:54;;;;;;;1.42;1.25;;;28.60;60.50;;;;;;5075621;28;20169;-75
2023/06/07 11:24:20;;;;;;;1.25;1.25;;;28.60;60.60;;;;;;5088957;28;20710;-75
2023/06/07 11:26:47;;;;;;;1.45;1.35;;;28.60;61.50;;;;;;5090043;28;20488;-76
2023/06/07 11:29:22;;;;;;;1.20;1.20;;;28.70;60.50;;;;;;5073457;28;20178;-75
2023/06/07 11:32:00;;;;;;;1.17;1.17;;;28.60;60.00;;;;;;5071909;28;20208;-75
2023/06/07 11:34:31;;;;;;;1.58;1.17;;;28.50;60.30;;;;;;5089383;28;20178;-75
2023/06/07 11:37:26;;;;;;;1.38;1.30;;;28.60;60.40;;;;;;5091022;28;20743;-75
2023/06/07 11:39:57;;;;;;;1.17;1.08;;;28.80;60.90;;;;;;5065589;28;20200;-75
2023/06/07 11:42:24;;;;;;;1.30;1.30;;;28.90;60.10;;;;;;5081727;28;20182;-75
2023/06/07 11:44:51;;;;;;;1.25;1.25;;;29.20;60.90;;;;;;5089719;28;20767;-76
2023/06/07 11:47:19;;;;;;;1.30;1.20;;;29.50;59.60;;;;;;5089007;28;20208;-75
2023/06/07 11:49:45;;;;;;;1.20;1.20;;;29.70;59.20;;;;;;5093932;28;20254;-77
2023/06/07 11:52:10;;;;;;;1.75;1.65;;;30.00;57.90;;;;;;5090967;28;20217;-75
2023/06/07 11:54:42;;;;;;;3.10;1.80;;;30.20;57.20;;;;;;5089622;28;20570;-75
2023/06/07 11:57:08;;;;;;;1.60;1.52;;;30.40;58.40;;;;;;5088706;28;20177;-75
2023/06/07 11:59:35;;;;;;;1.52;1.42;;;30.70;58.60;;;;;;5089817;28;20692;-78
2023/06/07 12:02:01;;;;;;;1.60;1.50;;;31.00;57.50;;;;;;5088630;28;20170;-75
2023/06/07 12:04:27;;;;;;;1.50;1.50;;;31.20;57.90;;;;;;5068253;28;20193;-75
2023/06/07 12:06:53;;;;;;;1.00;1.00;;;31.30;56.20;;;;;;5086676;28;20174;-75
2023/06/07 12:09:18;;;;;;;1.02;1.02;;;31.40;57.80;;;;;;5069067;28;20246;-77
2023/06/07 12:11:46;;;;;;;1.70;1.70;;;31.40;57.00;;;;;;5068469;28;20190;-77
2023/06/07 12:14:27;;;;;;;1.60;1.42;;;31.50;57.30;;;;;;5103108;28;20174;-77
2023/06/07 12:16:52;;;;;;;1.33;1.33;;;31.50;57.80;;;;;;5065299;28;20182;-77
2023/06/07 12:19:19;;;;;;;1.98;1.92;;;31.70;57.60;;;;;;5087153;28;20226;-77
2023/06/07 12:21:44;;;;;;;2.17;1.40;;;31.80;56.00;;;;;;5088677;28;20174;-78
2023/06/07 12:24:13;;;;;;;1.42;1.42;;;31.80;56.90;;;;;;5088695;28;20181;-77
2023/06/07 12:26:38;;;;;;;1.88;1.58;;;31.90;56.20;;;;;;5087613;28;20650;-78
2023/06/07 12:29:04;;;;;;;1.88;1.60;;;31.80;56.70;;;;;;5092201;28;20269;-78
2023/06/07 12:31:30;;;;;;;1.75;1.73;;;31.60;57.00;;;;;;5075065;28;20266;-78
2023/06/07 12:34:01;;;;;;;1.42;1.42;;;31.60;56.90;;;;;;5092864;28;20242;-77
2023/06/07 12:36:33;;;;;;;1.92;1.40;;;31.50;58.40;;;;;;5071435;28;20208;-77
2023/06/07 12:39:11;;;;;;;1.40;1.35;;;31.40;56.80;;;;;;5093815;28;20182;-78
2023/06/07 12:41:40;;;;;;;2.15;1.20;;;31.30;58.00;;;;;;5086827;28;20544;-76
2023/06/07 12:44:10;;;;;;;2.55;1.80;;;31.10;57.60;;;;;;5093578;28;20201;-77
2023/06/07 12:46:36;;;;;;;1.13;1.13;;;30.90;59.20;;;;;;5071851;28;20178;-76
2023/06/07 12:49:02;;;;;;;1.83;1.73;;;30.70;59.30;;;;;;5087626;28;20504;-77
2023/06/07 12:51:29;;;;;;;1.90;1.77;;;30.50;59.00;;;;;;5083575;28;20206;-78
2023/06/07 12:53:55;;;;;;;1.50;1.50;;;30.20;59.00;;;;;;5091210;28;20260;-76
2023/06/07 12:56:22;;;;;;;1.40;1.40;;;29.80;59.70;;;;;;5090855;28;20234;-78
2023/06/07 12:58:47;;;;;;;3.40;1.70;;;29.60;60.70;;;;;;5074809;28;20201;-78